Terminal Aerodrome Forecast
Issued by NWS

Home | Current Version | Previous Version | Text Only | Print | Product List | Glossary On
Versions: 1 2 3 4 5 6 7 8 9 10 11 12 13 14 15 16 17 18 19 20
000
FTUS46 KOTX 241131
TAFCOE
TAF
KCOE 241131Z 2412/2512 05006KT P6SM SCT040 OVC080
     FM241300 04008KT P6SM -RA SCT025 OVC040
     FM241800 04007KT 4SM -RA BR BKN015 OVC021
     FM250100 19007KT 5SM -RA BR OVC025
     FM250600 19006KT P6SM VCSH BKN025 OVC040
     FM250900 17005KT P6SM BKN060=

USA.gov is the U.S. government's official web portal to all federal, state and local government web resources and services.